sensor_id;sensor_type;location;lat;lon;timestamp;pressure;altitude;pressure_sealevel;temperature;humidity
48216;BME280;34005;48.844;10.098;2023-04-19T00:02:20;97229.38;;;9.45;71.54
48216;BME280;34005;48.844;10.098;2023-04-19T00:04:49;97226.91;;;9.43;71.61
48216;BME280;34005;48.844;10.098;2023-04-19T00:07:18;97223.66;;;9.41;71.70
48216;BME280;34005;48.844;10.098;2023-04-19T00:09:46;97223.00;;;9.39;71.78
48216;BME280;34005;48.844;10.098;2023-04-19T00:12:14;97222.34;;;9.37;71.77
48216;BME280;34005;48.844;10.098;2023-04-19T00:14:41;97225.75;;;9.38;71.86
48216;BME280;34005;48.844;10.098;2023-04-19T00:17:09;97222.34;;;9.37;71.92
48216;BME280;34005;48.844;10.098;2023-04-19T00:19:37;97222.34;;;9.37;72.10
48216;BME280;34005;48.844;10.098;2023-04-19T00:22:05;97216.31;;;9.37;72.07
48216;BME280;34005;48.844;10.098;2023-04-19T00:24:34;97222.19;;;9.39;71.92
48216;BME280;34005;48.844;10.098;2023-04-19T00:27:01;97218.44;;;9.41;72.38
48216;BME280;34005;48.844;10.098;2023-04-19T00:29:29;97209.69;;;9.42;72.02
48216;BME280;34005;48.844;10.098;2023-04-19T00:31:57;97215.69;;;9.43;72.17
48216;BME280;34005;48.844;10.098;2023-04-19T00:34:24;97212.28;;;9.42;71.96
48216;BME280;34005;48.844;10.098;2023-04-19T00:36:52;97210.63;;;9.41;71.87
48216;BME280;34005;48.844;10.098;2023-04-19T00:39:19;97208.38;;;9.38;72.10
48216;BME280;34005;48.844;10.098;2023-04-19T00:41:48;97199.91;;;9.36;72.26
48216;BME280;34005;48.844;10.098;2023-04-19T00:44:16;97204.94;;;9.38;72.27
48216;BME280;34005;48.844;10.098;2023-04-19T00:46:43;97204.78;;;9.39;72.38
48216;BME280;34005;48.844;10.098;2023-04-19T00:49:11;97203.81;;;9.40;72.34
48216;BME280;34005;48.844;10.098;2023-04-19T00:51:39;97205.59;;;9.40;72.07
48216;BME280;34005;48.844;10.098;2023-04-19T00:54:07;97204.47;;;9.42;72.17
48216;BME280;34005;48.844;10.098;2023-04-19T00:56:35;97208.84;;;9.42;72.13
48216;BME280;34005;48.844;10.098;2023-04-19T00:59:03;97203.63;;;9.42;72.08
48216;BME280;34005;48.844;10.098;2023-04-19T01:01:32;97202.69;;;9.43;72.33
48216;BME280;34005;48.844;10.098;2023-04-19T01:04:00;97198.44;;;9.42;72.15
48216;BME280;34005;48.844;10.098;2023-04-19T01:06:29;97197.63;;;9.41;72.23
48216;BME280;34005;48.844;10.098;2023-04-19T01:08:57;97196.00;;;9.40;72.17
48216;BME280;34005;48.844;10.098;2023-04-19T01:11:25;97202.81;;;9.41;72.25
48216;BME280;34005;48.844;10.098;2023-04-19T01:13:54;97196.81;;;9.41;72.10
48216;BME280;34005;48.844;10.098;2023-04-19T01:16:23;97191.75;;;9.39;72.25
48216;BME280;34005;48.844;10.098;2023-04-19T01:18:52;97191.09;;;9.37;72.26
48216;BME280;34005;48.844;10.098;2023-04-19T01:21:20;97181.81;;;9.35;72.16
48216;BME280;34005;48.844;10.098;2023-04-19T01:23:50;97181.97;;;9.33;72.33
48216;BME280;34005;48.844;10.098;2023-04-19T01:26:17;97182.63;;;9.35;72.41
48216;BME280;34005;48.844;10.098;2023-04-19T01:28:45;97181.00;;;9.34;72.23
48216;BME280;34005;48.844;10.098;2023-04-19T01:31:13;97181.97;;;9.33;72.25
48216;BME280;34005;48.844;10.098;2023-04-19T01:33:40;97175.31;;;9.31;72.21
48216;BME280;34005;48.844;10.098;2023-04-19T01:36:08;97180.66;;;9.29;72.39
48216;BME280;34005;48.844;10.098;2023-04-19T01:38:36;97173.97;;;9.26;72.38
48216;BME280;34005;48.844;10.098;2023-04-19T01:41:05;97174.78;;;9.27;72.35
48216;BME280;34005;48.844;10.098;2023-04-19T01:43:33;97169.59;;;9.27;72.41
48216;BME280;34005;48.844;10.098;2023-04-19T01:46:00;97164.38;;;9.27;72.48
48216;BME280;34005;48.844;10.098;2023-04-19T01:48:28;97169.44;;;9.28;72.60
48216;BME280;34005;48.844;10.098;2023-04-19T01:50:56;97163.28;;;9.30;72.59
48216;BME280;34005;48.844;10.098;2023-04-19T01:53:23;97168.47;;;9.30;72.45
48216;BME280;34005;48.844;10.098;2023-04-19T01:55:51;97166.84;;;9.28;72.55
48216;BME280;34005;48.844;10.098;2023-04-19T01:58:20;97166.69;;;9.30;74.22
48216;BME280;34005;48.844;10.098;2023-04-19T02:00:47;97159.03;;;9.28;73.08
48216;BME280;34005;48.844;10.098;2023-04-19T02:03:15;97161.28;;;9.23;72.92
48216;BME280;34005;48.844;10.098;2023-04-19T02:05:43;97158.19;;;9.20;72.98
48216;BME280;34005;48.844;10.098;2023-04-19T02:08:10;97152.50;;;9.16;72.93
48216;BME280;34005;48.844;10.098;2023-04-19T02:10:38;97147.44;;;9.15;73.07
48216;BME280;34005;48.844;10.098;2023-04-19T02:13:05;97149.53;;;9.11;73.00
48216;BME280;34005;48.844;10.098;2023-04-19T02:15:35;97146.47;;;9.07;72.95
48216;BME280;34005;48.844;10.098;2023-04-19T02:18:03;97141.25;;;9.07;73.45
48216;BME280;34005;48.844;10.098;2023-04-19T02:20:32;97137.16;;;9.05;72.98
48216;BME280;34005;48.844;10.098;2023-04-19T02:22:59;97139.94;;;9.03;72.90
48216;BME280;34005;48.844;10.098;2023-04-19T02:25:27;97136.69;;;9.01;73.03
48216;BME280;34005;48.844;10.098;2023-04-19T02:27:54;97125.91;;;8.96;73.00
48216;BME280;34005;48.844;10.098;2023-04-19T02:30:22;97138.13;;;8.96;73.53
48216;BME280;34005;48.844;10.098;2023-04-19T02:32:51;97132.75;;;8.97;73.39
48216;BME280;34005;48.844;10.098;2023-04-19T02:35:20;97133.28;;;9.01;73.11
48216;BME280;34005;48.844;10.098;2023-04-19T02:37:48;97129.34;;;9.05;72.88
48216;BME280;34005;48.844;10.098;2023-04-19T02:40:16;97128.25;;;9.07;72.87
48216;BME280;34005;48.844;10.098;2023-04-19T02:42:43;97131.50;;;9.10;72.72
48216;BME280;34005;48.844;10.098;2023-04-19T02:45:11;97132.47;;;9.08;72.66
48216;BME280;34005;48.844;10.098;2023-04-19T02:47:38;97131.50;;;9.10;72.69
48216;BME280;34005;48.844;10.098;2023-04-19T02:50:08;97129.53;;;9.12;72.71
48216;BME280;34005;48.844;10.098;2023-04-19T02:52:37;97127.28;;;9.17;73.63
48216;BME280;34005;48.844;10.098;2023-04-19T02:55:05;97129.91;;;9.25;75.74
48216;BME280;34005;48.844;10.098;2023-04-19T02:57:33;97125.34;;;9.27;73.88
48216;BME280;34005;48.844;10.098;2023-04-19T03:00:00;97129.72;;;9.26;73.50
48216;BME280;34005;48.844;10.098;2023-04-19T03:02:30;97130.72;;;9.25;73.80
48216;BME280;34005;48.844;10.098;2023-04-19T03:04:58;97122.91;;;9.25;72.99
48216;BME280;34005;48.844;10.098;2023-04-19T03:07:27;97119.66;;;9.23;72.54
48216;BME280;34005;48.844;10.098;2023-04-19T03:09:54;97115.91;;;9.26;74.66
48216;BME280;34005;48.844;10.098;2023-04-19T03:12:22;97121.44;;;9.31;74.14
48216;BME280;34005;48.844;10.098;2023-04-19T03:14:49;97116.41;;;9.38;76.02
48216;BME280;34005;48.844;10.098;2023-04-19T03:17:17;97120.16;;;9.43;77.04
48216;BME280;34005;48.844;10.098;2023-04-19T03:19:44;97111.06;;;9.47;76.58
48216;BME280;34005;48.844;10.098;2023-04-19T03:22:12;97115.59;;;9.45;75.34
48216;BME280;34005;48.844;10.098;2023-04-19T03:24:41;97119.34;;;9.43;74.43
48216;BME280;34005;48.844;10.098;2023-04-19T03:27:08;97113.34;;;9.42;74.72
48216;BME280;34005;48.844;10.098;2023-04-19T03:29:36;97111.03;;;9.39;73.35
48216;BME280;34005;48.844;10.098;2023-04-19T03:32:04;97110.06;;;9.32;73.07
48216;BME280;34005;48.844;10.098;2023-04-19T03:34:31;97114.94;;;9.35;75.29
48216;BME280;34005;48.844;10.098;2023-04-19T03:36:59;97109.06;;;9.33;73.38
48216;BME280;34005;48.844;10.098;2023-04-19T03:39:26;97108.75;;;9.28;73.03
48216;BME280;34005;48.844;10.098;2023-04-19T03:41:55;97101.44;;;9.23;72.66
48216;BME280;34005;48.844;10.098;2023-04-19T03:44:23;97108.44;;;9.23;72.59
48216;BME280;34005;48.844;10.098;2023-04-19T03:46:50;97098.97;;;9.22;72.50
48216;BME280;34005;48.844;10.098;2023-04-19T03:49:18;97100.63;;;9.23;74.40
48216;BME280;34005;48.844;10.098;2023-04-19T03:51:46;97099.28;;;9.27;73.79
48216;BME280;34005;48.844;10.098;2023-04-19T03:54:13;97102.22;;;9.24;72.64
48216;BME280;34005;48.844;10.098;2023-04-19T03:56:42;97094.56;;;9.22;73.61
48216;BME280;34005;48.844;10.098;2023-04-19T03:59:11;97097.34;;;9.29;76.20
48216;BME280;34005;48.844;10.098;2023-04-19T04:01:38;97095.72;;;9.28;75.67
48216;BME280;34005;48.844;10.098;2023-04-19T04:04:07;97098.34;;;9.28;74.87
48216;BME280;34005;48.844;10.098;2023-04-19T04:06:35;97095.09;;;9.26;73.37
48216;BME280;34005;48.844;10.098;2023-04-19T04:09:03;97097.50;;;9.19;72.68
48216;BME280;34005;48.844;10.098;2023-04-19T04:11:30;97102.56;;;9.13;71.80
48216;BME280;34005;48.844;10.098;2023-04-19T04:13:58;97099.78;;;9.06;71.71
48216;BME280;34005;48.844;10.098;2023-04-19T04:16:27;97097.66;;;9.01;71.57
48216;BME280;34005;48.844;10.098;2023-04-19T04:18:54;97101.69;;;8.96;71.76
48216;BME280;34005;48.844;10.098;2023-04-19T04:21:22;97106.25;;;8.94;71.84
48216;BME280;34005;48.844;10.098;2023-04-19T04:23:51;97102.50;;;8.96;72.24
48216;BME280;34005;48.844;10.098;2023-04-19T04:26:19;97102.34;;;8.98;71.86
48216;BME280;34005;48.844;10.098;2023-04-19T04:28:47;97105.09;;;8.96;71.78
48216;BME280;34005;48.844;10.098;2023-04-19T04:31:14;97105.44;;;8.93;71.80
48216;BME280;34005;48.844;10.098;2023-04-19T04:33:45;97104.13;;;8.89;71.91
48216;BME280;34005;48.844;10.098;2023-04-19T04:36:12;97109.66;;;8.86;72.22
48216;BME280;34005;48.844;10.098;2023-04-19T04:38:41;97108.19;;;8.83;72.73
48216;BME280;34005;48.844;10.098;2023-04-19T04:41:10;97112.91;;;8.88;74.51
48216;BME280;34005;48.844;10.098;2023-04-19T04:43:38;97106.25;;;8.94;74.44
48216;BME280;34005;48.844;10.098;2023-04-19T04:46:05;97111.63;;;9.00;75.46
48216;BME280;34005;48.844;10.098;2023-04-19T04:48:33;97119.13;;;9.12;76.63
48216;BME280;34005;48.844;10.098;2023-04-19T04:51:02;97113.28;;;9.18;76.47
48216;BME280;34005;48.844;10.098;2023-04-19T04:53:29;97115.25;;;9.24;76.79
48216;BME280;34005;48.844;10.098;2023-04-19T04:55:57;97113.97;;;9.28;75.41
48216;BME280;34005;48.844;10.098;2023-04-19T04:58:25;97118.53;;;9.34;77.58
48216;BME280;34005;48.844;10.098;2023-04-19T05:00:52;97115.75;;;9.36;75.99
48216;BME280;34005;48.844;10.098;2023-04-19T05:03:20;97116.56;;;9.36;76.87
48216;BME280;34005;48.844;10.098;2023-04-19T05:05:48;97116.25;;;9.39;75.43
48216;BME280;34005;48.844;10.098;2023-04-19T05:08:17;97104.22;;;9.38;75.91
48216;BME280;34005;48.844;10.098;2023-04-19T05:10:45;97110.06;;;9.40;75.97
48216;BME280;34005;48.844;10.098;2023-04-19T05:13:12;97113.50;;;9.41;75.77
48216;BME280;34005;48.844;10.098;2023-04-19T05:15:40;97107.78;;;9.37;74.33
48216;BME280;34005;48.844;10.098;2023-04-19T05:18:07;97106.47;;;9.33;73.38
48216;BME280;34005;48.844;10.098;2023-04-19T05:20:35;97105.81;;;9.31;72.72
48216;BME280;34005;48.844;10.098;2023-04-19T05:23:02;97103.41;;;9.30;73.66
48216;BME280;34005;48.844;10.098;2023-04-19T05:25:31;97110.88;;;9.33;74.50
48216;BME280;34005;48.844;10.098;2023-04-19T05:27:59;97108.44;;;9.39;75.34
48216;BME280;34005;48.844;10.098;2023-04-19T05:30:28;97108.75;;;9.44;75.64
48216;BME280;34005;48.844;10.098;2023-04-19T05:32:56;97100.78;;;9.46;73.92
48216;BME280;34005;48.844;10.098;2023-04-19T05:35:24;97106.34;;;9.43;73.77
48216;BME280;34005;48.844;10.098;2023-04-19T05:37:52;97103.53;;;9.44;75.74
48216;BME280;34005;48.844;10.098;2023-04-19T05:40:19;97106.81;;;9.46;74.77
48216;BME280;34005;48.844;10.098;2023-04-19T05:42:50;97104.69;;;9.42;73.15
48216;BME280;34005;48.844;10.098;2023-04-19T05:45:20;97103.06;;;9.41;73.16
48216;BME280;34005;48.844;10.098;2023-04-19T05:47:48;97091.84;;;9.40;72.56
48216;BME280;34005;48.844;10.098;2023-04-19T05:50:15;97104.22;;;9.38;72.15
48216;BME280;34005;48.844;10.098;2023-04-19T05:52:45;97095.56;;;9.38;72.07
48216;BME280;34005;48.844;10.098;2023-04-19T05:55:13;97100.63;;;9.39;72.78
48216;BME280;34005;48.844;10.098;2023-04-19T05:57:40;97092.81;;;9.39;72.03
48216;BME280;34005;48.844;10.098;2023-04-19T06:00:10;97101.28;;;9.41;72.29
48216;BME280;34005;48.844;10.098;2023-04-19T06:02:38;97096.38;;;9.46;74.28
48216;BME280;34005;48.844;10.098;2023-04-19T06:05:06;97090.53;;;9.53;75.44
48216;BME280;34005;48.844;10.098;2023-04-19T06:07:36;97097.69;;;9.59;74.37
48216;BME280;34005;48.844;10.098;2023-04-19T06:10:12;97096.41;;;9.63;75.23
48216;BME280;34005;48.844;10.098;2023-04-19T06:12:40;97097.72;;;9.67;74.17
48216;BME280;34005;48.844;10.098;2023-04-19T06:15:09;97098.03;;;9.72;75.32
48216;BME280;34005;48.844;10.098;2023-04-19T06:17:37;97094.91;;;9.77;74.10
48216;BME280;34005;48.844;10.098;2023-04-19T06:20:06;97092.16;;;9.86;74.74
48216;BME280;34005;48.844;10.098;2023-04-19T06:22:43;97101.28;;;9.90;73.43
48216;BME280;34005;48.844;10.098;2023-04-19T06:25:11;97102.88;;;9.92;74.25
48216;BME280;34005;48.844;10.098;2023-04-19T06:27:38;97100.94;;;9.94;72.87
48216;BME280;34005;48.844;10.098;2023-04-19T06:30:07;97095.41;;;9.88;71.25
48216;BME280;34005;48.844;10.098;2023-04-19T06:32:36;97090.19;;;9.88;72.92
48216;BME280;34005;48.844;10.098;2023-04-19T06:35:05;97094.06;;;9.93;73.65
48216;BME280;34005;48.844;10.098;2023-04-19T06:37:33;97090.50;;;9.94;71.52
48216;BME280;34005;48.844;10.098;2023-04-19T06:40:01;97084.00;;;9.98;71.24
48216;BME280;34005;48.844;10.098;2023-04-19T06:42:30;97079.41;;;10.08;70.88
48216;BME280;34005;48.844;10.098;2023-04-19T06:44:57;97085.44;;;10.17;72.14
48216;BME280;34005;48.844;10.098;2023-04-19T06:47:25;97085.88;;;10.20;69.93
48216;BME280;34005;48.844;10.098;2023-04-19T06:49:55;97095.66;;;10.18;69.30
48216;BME280;34005;48.844;10.098;2023-04-19T06:52:23;97089.66;;;10.18;70.46
48216;BME280;34005;48.844;10.098;2023-04-19T06:54:50;97096.97;;;10.22;72.19
48216;BME280;34005;48.844;10.098;2023-04-19T06:57:18;97094.00;;;10.25;70.75
48216;BME280;34005;48.844;10.098;2023-04-19T06:59:46;97095.00;;;10.24;69.48
48216;BME280;34005;48.844;10.098;2023-04-19T07:02:13;97092.91;;;10.20;68.94
48216;BME280;34005;48.844;10.098;2023-04-19T07:04:41;97087.69;;;10.11;68.66
48216;BME280;34005;48.844;10.098;2023-04-19T07:07:11;97096.03;;;10.07;68.59
48216;BME280;34005;48.844;10.098;2023-04-19T07:09:38;97083.34;;;10.04;68.74
48216;BME280;34005;48.844;10.098;2023-04-19T07:12:06;97090.50;;;10.02;68.45
48216;BME280;34005;48.844;10.098;2023-04-19T07:14:34;97086.25;;;10.01;68.52
48216;BME280;34005;48.844;10.098;2023-04-19T07:17:03;97090.50;;;10.02;68.50
48216;BME280;34005;48.844;10.098;2023-04-19T07:19:30;97087.72;;;10.03;68.16
48216;BME280;34005;48.844;10.098;2023-04-19T07:21:58;97085.28;;;10.02;67.81
48216;BME280;34005;48.844;10.098;2023-04-19T07:24:27;97087.25;;;10.00;68.05
48216;BME280;34005;48.844;10.098;2023-04-19T07:26:55;97076.81;;;10.00;68.18
48216;BME280;34005;48.844;10.098;2023-04-19T07:29:23;97069.66;;;10.02;68.28
48216;BME280;34005;48.844;10.098;2023-04-19T07:31:51;97073.22;;;10.09;68.06
48216;BME280;34005;48.844;10.098;2023-04-19T07:34:20;97066.19;;;10.18;69.35
48216;BME280;34005;48.844;10.098;2023-04-19T07:36:48;97061.13;;;10.33;68.44
48216;BME280;34005;48.844;10.098;2023-04-19T07:39:15;97061.91;;;10.41;67.74
48216;BME280;34005;48.844;10.098;2023-04-19T07:41:44;97059.72;;;10.53;67.33
48216;BME280;34005;48.844;10.098;2023-04-19T07:44:12;97059.47;;;10.71;66.57
48216;BME280;34005;48.844;10.098;2023-04-19T07:46:41;97053.53;;;10.85;65.67
48216;BME280;34005;48.844;10.098;2023-04-19T07:49:09;97047.34;;;11.09;65.40
48216;BME280;34005;48.844;10.098;2023-04-19T07:51:37;97049.66;;;11.50;66.81
48216;BME280;34005;48.844;10.098;2023-04-19T07:54:05;97039.88;;;11.82;64.25
48216;BME280;34005;48.844;10.098;2023-04-19T07:56:32;97034.31;;;12.00;62.80
48216;BME280;34005;48.844;10.098;2023-04-19T07:59:01;97044.25;;;12.20;65.08
48216;BME280;34005;48.844;10.098;2023-04-19T08:01:35;97048.47;;;12.50;65.37
48216;BME280;34005;48.844;10.098;2023-04-19T08:04:03;97039.13;;;12.77;62.18
48216;BME280;34005;48.844;10.098;2023-04-19T08:06:31;97034.94;;;12.83;61.37
48216;BME280;34005;48.844;10.098;2023-04-19T08:08:59;97040.09;;;12.76;61.97
48216;BME280;34005;48.844;10.098;2023-04-19T08:11:27;97046.19;;;12.62;61.02
48216;BME280;34005;48.844;10.098;2023-04-19T08:13:55;97043.78;;;12.46;60.92
48216;BME280;34005;48.844;10.098;2023-04-19T08:16:26;97044.78;;;12.30;60.72
48216;BME280;34005;48.844;10.098;2023-04-19T08:19:15;97040.09;;;12.10;61.18
48216;BME280;34005;48.844;10.098;2023-04-19T08:21:42;97031.28;;;11.97;61.08
48216;BME280;34005;48.844;10.098;2023-04-19T08:24:10;97028.06;;;11.86;61.23
48216;BME280;34005;48.844;10.098;2023-04-19T08:26:37;97031.22;;;11.82;61.49
48216;BME280;34005;48.844;10.098;2023-04-19T08:29:05;97028.78;;;11.80;61.83
48216;BME280;34005;48.844;10.098;2023-04-19T08:31:34;97031.94;;;11.75;61.60
48216;BME280;34005;48.844;10.098;2023-04-19T08:34:02;97030.03;;;11.69;61.88
48216;BME280;34005;48.844;10.098;2023-04-19T08:36:30;97023.53;;;11.65;62.04
48216;BME280;34005;48.844;10.098;2023-04-19T08:39:08;97032.22;;;11.66;62.08
48216;BME280;34005;48.844;10.098;2023-04-19T08:41:57;97026.97;;;11.66;62.44
48216;BME280;34005;48.844;10.098;2023-04-19T08:44:38;97021.56;;;11.67;62.60
48216;BME280;34005;48.844;10.098;2023-04-19T08:47:28;97023.03;;;11.70;63.00
48216;BME280;34005;48.844;10.098;2023-04-19T08:50:00;97020.50;;;11.77;64.18
48216;BME280;34005;48.844;10.098;2023-04-19T08:52:32;97015.91;;;11.79;63.43
48216;BME280;34005;48.844;10.098;2023-04-19T08:55:10;97008.72;;;11.81;65.35
48216;BME280;34005;48.844;10.098;2023-04-19T08:57:38;97008.16;;;11.85;63.73
48216;BME280;34005;48.844;10.098;2023-04-19T09:00:07;97009.13;;;11.84;63.37
48216;BME280;34005;48.844;10.098;2023-04-19T09:02:48;97004.53;;;11.86;64.93
48216;BME280;34005;48.844;10.098;2023-04-19T09:05:17;96996.38;;;11.89;63.21
48216;BME280;34005;48.844;10.098;2023-04-19T09:07:46;96998.09;;;11.97;62.91
48216;BME280;34005;48.844;10.098;2023-04-19T09:10:15;97002.69;;;12.25;61.71
48216;BME280;34005;48.844;10.098;2023-04-19T09:12:58;97004.88;;;12.57;60.93
48216;BME280;34005;48.844;10.098;2023-04-19T09:15:35;97004.97;;;12.64;59.78
48216;BME280;34005;48.844;10.098;2023-04-19T09:18:06;97003.97;;;12.50;59.98
48216;BME280;34005;48.844;10.098;2023-04-19T09:20:39;97007.88;;;12.40;60.70
48216;BME280;34005;48.844;10.098;2023-04-19T09:23:08;97008.00;;;12.31;60.79
48216;BME280;34005;48.844;10.098;2023-04-19T09:25:38;97003.75;;;12.15;61.29
48216;BME280;34005;48.844;10.098;2023-04-19T09:28:26;97005.75;;;11.99;61.58
48216;BME280;34005;48.844;10.098;2023-04-19T09:30:55;97005.34;;;11.87;61.91
48216;BME280;34005;48.844;10.098;2023-04-19T09:33:34;96996.97;;;11.77;62.02
48216;BME280;34005;48.844;10.098;2023-04-19T09:36:05;96998.50;;;11.71;62.58
48216;BME280;34005;48.844;10.098;2023-04-19T09:38:45;96997.13;;;11.60;63.49
48216;BME280;34005;48.844;10.098;2023-04-19T09:41:14;96990.19;;;11.52;63.42
48216;BME280;34005;48.844;10.098;2023-04-19T09:43:42;96993.78;;;11.51;63.99
48216;BME280;34005;48.844;10.098;2023-04-19T09:46:31;96989.66;;;11.57;64.56
48216;BME280;34005;48.844;10.098;2023-04-19T09:49:17;96982.72;;;11.64;64.71
48216;BME280;34005;48.844;10.098;2023-04-19T09:52:06;96976.31;;;11.67;63.51
48216;BME280;34005;48.844;10.098;2023-04-19T09:54:33;96981.47;;;11.75;63.32
48216;BME280;34005;48.844;10.098;2023-04-19T09:57:01;96979.97;;;11.81;63.20
48216;BME280;34005;48.844;10.098;2023-04-19T09:59:29;96976.50;;;11.80;63.05
48216;BME280;34005;48.844;10.098;2023-04-19T10:01:58;96968.03;;;11.78;63.19
48216;BME280;34005;48.844;10.098;2023-04-19T10:04:28;96964.78;;;11.76;63.13
48216;BME280;34005;48.844;10.098;2023-04-19T10:07:16;96967.69;;;11.81;62.80
48216;BME280;34005;48.844;10.098;2023-04-19T10:09:56;96964.06;;;11.82;62.40
48216;BME280;34005;48.844;10.098;2023-04-19T10:12:43;96957.16;;;11.74;62.52
48216;BME280;34005;48.844;10.098;2023-04-19T10:15:35;96964.91;;;11.68;62.84
48216;BME280;34005;48.844;10.098;2023-04-19T10:18:06;96956.59;;;11.64;64.14
48216;BME280;34005;48.844;10.098;2023-04-19T10:20:41;96951.91;;;11.60;63.22
48216;BME280;34005;48.844;10.098;2023-04-19T10:23:12;96954.25;;;11.54;63.56
48216;BME280;34005;48.844;10.098;2023-04-19T10:25:44;96951.97;;;11.51;64.45
48216;BME280;34005;48.844;10.098;2023-04-19T10:28:12;96951.56;;;11.48;64.25
48216;BME280;34005;48.844;10.098;2023-04-19T10:30:52;96951.09;;;11.44;64.19
48216;BME280;34005;48.844;10.098;2023-04-19T10:33:27;96950.09;;;11.45;67.20
48216;BME280;34005;48.844;10.098;2023-04-19T10:35:57;96949.09;;;11.46;65.14
48216;BME280;34005;48.844;10.098;2023-04-19T10:38:38;96948.47;;;11.44;64.96
48216;BME280;34005;48.844;10.098;2023-04-19T10:41:07;96947.19;;;11.40;65.19
48216;BME280;34005;48.844;10.098;2023-04-19T10:43:44;96944.50;;;11.33;65.60
48216;BME280;34005;48.844;10.098;2023-04-19T10:46:14;96936.19;;;11.30;66.57
48216;BME280;34005;48.844;10.098;2023-04-19T10:49:00;96939.00;;;11.28;67.08
48216;BME280;34005;48.844;10.098;2023-04-19T10:51:32;96937.91;;;11.23;66.83
48216;BME280;34005;48.844;10.098;2023-04-19T10:54:01;96938.59;;;11.17;67.23
48216;BME280;34005;48.844;10.098;2023-04-19T10:59:38;96943.50;;;10.97;67.99
48216;BME280;34005;48.844;10.098;2023-04-19T11:02:26;96935.41;;;10.91;70.16
48216;BME280;34005;48.844;10.098;2023-04-19T11:05:01;96929.72;;;10.88;70.04
48216;BME280;34005;48.844;10.098;2023-04-19T11:07:37;96933.84;;;10.82;70.24
48216;BME280;34005;48.844;10.098;2023-04-19T11:10:07;96932.38;;;10.80;70.12
48216;BME280;34005;48.844;10.098;2023-04-19T11:12:35;96931.94;;;10.76;70.15
48216;BME280;34005;48.844;10.098;2023-04-19T11:15:04;96931.81;;;10.69;70.34
48216;BME280;34005;48.844;10.098;2023-04-19T11:17:34;96932.50;;;10.63;70.57
48216;BME280;34005;48.844;10.098;2023-04-19T11:20:05;96931.38;;;10.58;70.95
48216;BME280;34005;48.844;10.098;2023-04-19T11:22:35;96920.66;;;10.52;71.20
48216;BME280;34005;48.844;10.098;2023-04-19T11:25:11;96919.88;;;10.52;72.35
48216;BME280;34005;48.844;10.098;2023-04-19T11:27:40;96910.59;;;10.49;71.48
48216;BME280;34005;48.844;10.098;2023-04-19T11:30:10;96916.13;;;10.46;71.54
48216;BME280;34005;48.844;10.098;2023-04-19T11:32:43;96909.66;;;10.42;72.66
48216;BME280;34005;48.844;10.098;2023-04-19T11:35:11;96912.44;;;10.41;72.32
48216;BME280;34005;48.844;10.098;2023-04-19T11:37:39;96925.81;;;10.38;72.66
48216;BME280;34005;48.844;10.098;2023-04-19T11:40:07;96919.31;;;10.34;72.78
48216;BME280;34005;48.844;10.098;2023-04-19T11:42:36;96918.19;;;10.28;72.64
48216;BME280;34005;48.844;10.098;2023-04-19T11:45:05;96916.44;;;10.20;72.79
48216;BME280;34005;48.844;10.098;2023-04-19T11:47:47;96913.84;;;10.12;73.06
48216;BME280;34005;48.844;10.098;2023-04-19T11:50:29;96909.16;;;10.07;73.24
48216;BME280;34005;48.844;10.098;2023-04-19T11:52:57;96912.28;;;10.03;73.02
48216;BME280;34005;48.844;10.098;2023-04-19T11:55:25;96905.78;;;9.99;73.09
48216;BME280;34005;48.844;10.098;2023-04-19T11:57:54;96904.50;;;9.95;73.00
48216;BME280;34005;48.844;10.098;2023-04-19T12:00:26;96900.63;;;9.90;73.59
48216;BME280;34005;48.844;10.098;2023-04-19T12:02:54;96899.97;;;9.88;73.58
48216;BME280;34005;48.844;10.098;2023-04-19T12:05:22;96903.59;;;9.79;72.74
48216;BME280;34005;48.844;10.098;2023-04-19T12:08:00;96901.19;;;9.69;73.52
48216;BME280;34005;48.844;10.098;2023-04-19T12:10:28;96905.28;;;9.64;73.22
48216;BME280;34005;48.844;10.098;2023-04-19T12:12:57;96903.16;;;9.59;73.63
48216;BME280;34005;48.844;10.098;2023-04-19T12:15:40;96910.34;;;9.57;73.83
48216;BME280;34005;48.844;10.098;2023-04-19T12:18:08;96903.34;;;9.58;73.49
48216;BME280;34005;48.844;10.098;2023-04-19T12:20:37;96905.13;;;9.57;73.57
48216;BME280;34005;48.844;10.098;2023-04-19T12:23:05;96896.03;;;9.53;73.55
48216;BME280;34005;48.844;10.098;2023-04-19T12:25:36;96898.31;;;9.56;74.29
48216;BME280;34005;48.844;10.098;2023-04-19T12:28:05;96897.16;;;9.59;73.85
48216;BME280;34005;48.844;10.098;2023-04-19T12:30:34;96895.03;;;9.62;72.85
48216;BME280;34005;48.844;10.098;2023-04-19T12:33:02;96893.25;;;9.63;72.44
48216;BME280;34005;48.844;10.098;2023-04-19T12:35:30;96896.00;;;9.61;72.53
48216;BME280;34005;48.844;10.098;2023-04-19T12:37:58;96903.66;;;9.63;72.86
48216;BME280;34005;48.844;10.098;2023-04-19T12:40:26;96900.06;;;9.64;73.26
48216;BME280;34005;48.844;10.098;2023-04-19T12:42:53;96901.53;;;9.66;72.51
48216;BME280;34005;48.844;10.098;2023-04-19T12:45:22;96896.00;;;9.61;71.47
48216;BME280;34005;48.844;10.098;2023-04-19T12:47:50;96891.47;;;9.55;71.17
48216;BME280;34005;48.844;10.098;2023-04-19T12:50:18;96887.88;;;9.56;72.25
48216;BME280;34005;48.844;10.098;2023-04-19T12:52:45;96887.72;;;9.58;71.31
48216;BME280;34005;48.844;10.098;2023-04-19T12:55:13;96890.94;;;9.60;71.06
48216;BME280;34005;48.844;10.098;2023-04-19T12:57:41;96880.72;;;9.58;70.56
48216;BME280;34005;48.844;10.098;2023-04-19T13:00:09;96888.69;;;9.57;69.89
48216;BME280;34005;48.844;10.098;2023-04-19T13:02:39;96889.03;;;9.54;70.22
48216;BME280;34005;48.844;10.098;2023-04-19T13:05:07;96892.63;;;9.53;70.24
48216;BME280;34005;48.844;10.098;2023-04-19T13:07:35;96887.59;;;9.51;70.16
48216;BME280;34005;48.844;10.098;2023-04-19T13:10:03;96878.63;;;9.54;70.37
48216;BME280;34005;48.844;10.098;2023-04-19T13:12:31;96877.78;;;9.53;70.06